No es requerida especial atención con respecto al clima.   -   No hay avisos meteorológicos

Informes METAR

 

LEZL - Sevilla, Spain
Distancia de la estación: ESE 25km
Actualización: 19/02/2018 10:00
Despejado
Despejado
 Viento de NE
Viento: NE 6 km/h
Temperatura: 9°C
Rocío: 3°C
Humedad: 66%
Barómetro: 1019 hPa
Resumen: Despejado
Visibilidad: mayor de 10 km
2018/02/19 09:00 LEZL 190900Z 04003KT 020V080 CAVOK 09/03 Q1019 NOSIG
LEMO - Morón, Spain
Distancia de la estación: SE 65km
Actualización: 19/02/2018 10:00
Neblina, Parcialmente nuboso
Neblina, Parcialmente nuboso
 Viento de variable
Viento: variable 4 km/h
Temperatura: 9°C
Rocío: 8°C
Humedad: 94%
Barómetro: 1018 hPa
Resumen: Neblina
Nubes: Parcialmente nuboso
Visibilidad: 3 km
2018/02/19 09:00 LEMO 190900Z VRB02KT 3000 BR NSC 09/08 Q1018 NOSIG
LEJR - Jeréz, Spain
Distancia de la estación: S 87km
Actualización: 19/02/2018 10:30
Parcialmente nuboso
Parcialmente nuboso
 Viento de variable
Viento: variable 2 km/h
Temperatura: 12°C
Rocío: 10°C
Humedad: 88%
Barómetro: 1018 hPa
Nubes: Parcialmente nuboso
Visibilidad: 6 km
2018/02/19 09:30 LEJR 190930Z VRB01KT 6000 NSC 12/10 Q1018
 
LERT - Rota, Spain
Distancia de la estación: S 101km
Actualización: 19/02/2018 10:00
Niebla, Cubierto
Niebla, Cubierto
 Viento de N
Viento: N 6 km/h
Temperatura: 9°C
Rocío: 9°C
Humedad: 100%
Barómetro: 1018 hPa
Resumen: Niebla
Nubes: Cubierto
Visibilidad: 0 km
Detalles de las nubes: Cubierto 30 m
2018/02/19 09:00 LERT 190900Z 01003KT 340V050 0200 R10/0375N FG VV001 09/09 Q1018 NOSIG
LEMG - Málaga, Spain
Distancia de la estación: ESE 178km
Actualización: 19/02/2018 10:00
Neblina, Parcialmente nuboso
Neblina, Parcialmente nuboso
 Viento de NO
Viento: NO 7 km/h
Temperatura: 11°C
Rocío: 11°C
Humedad: 100%
Barómetro: 1018 hPa
Resumen: Neblina
Nubes: Parcialmente nuboso
Visibilidad: 3 km
Detalles de las nubes: Poco nuboso 366 m
Parcialmente nuboso 2591 m
2018/02/19 09:00 LEMG 190900Z 31004KT 3000 BR FEW012 SCT085 11/11 Q1018 NOSIG
LEBA - Córdoba, Spain
Distancia de la estación: ENE 123km
Actualización: 19/02/2018 10:00
Despejado
Despejado
 Viento de calm
Viento: Calma
Temperatura: 7°C
Rocío: 2°C
Humedad: 71%
Barómetro: 1019 hPa
Resumen: Despejado
Visibilidad: mayor de 10 km
2018/02/19 09:00 LEBA 190900Z 00000KT CAVOK 07/02 Q1019
 
LEGR - Granada, Spain
Distancia de la estación: E 215km
Actualización: 19/02/2018 10:00
Poco nuboso
Poco nuboso
 Viento de calm
Viento: Calma
Temperatura: 7°C
Rocío: 4°C
Humedad: 81%
Barómetro: 1018 hPa
Nubes: Poco nuboso
Visibilidad: 8 km
Detalles de las nubes: Poco nuboso 457 m
2018/02/19 09:00 LEGR 190900Z 00000KT 8000 FEW015 07/04 Q1018
LEAM - Almería, Spain
Distancia de la estación: E 344km
Actualización: 19/02/2018 10:00
Lluvia débil, Muy nuboso
Lluvia débil, Muy nuboso
 Viento de O
Viento: O 9 km/h
Temperatura: 13°C
Rocío: 12°C
Humedad: 94%
Barómetro: 1018 hPa
Resumen: Lluvia débil
Nubes: Muy nuboso
Visibilidad: 10 km
Detalles de las nubes: Muy nuboso 762 m
2018/02/19 09:00 LEAM 190900Z 28005KT 9999 4000SW -RA BKN025 13/12 Q1018
GCLP - Las Palmas/Aeropuerto, Spain
Distancia de la estación: SO 1410km
Actualización: 19/02/2018 10:00
Parcialmente nuboso
Parcialmente nuboso
 Viento de N
Viento: N 20 km/h
Temperatura: 17°C
Rocío: 10°C
Humedad: 64%
Barómetro: 1018 hPa
Nubes: Parcialmente nuboso
Visibilidad: 10 km
Detalles de las nubes: Parcialmente nuboso 914 m
2018/02/19 09:00 GCLP 190900Z 35011KT 300V010 9999 SCT030 17/10 Q1018 NOSIG
 
LEMD - Madrid/Barajas, Spain
Distancia de la estación: NNE 402km
Actualización: 19/02/2018 10:00
Poco nuboso
Poco nuboso
 Viento de N
Viento: N 11 km/h
Temperatura: 10°C
Sensación térmica: 8°C
Rocío: 3°C
Humedad: 62%
Barómetro: 1019 hPa
Nubes: Poco nuboso
Visibilidad: 10 km
Detalles de las nubes: Poco nuboso 2438 m
2018/02/19 09:00 LEMD 190900Z 01006KT 330V060 9999 FEW080 10/03 Q1019 NOSIG
LEVD - Valladolid, Spain
Distancia de la estación: N 492km
Actualización: 19/02/2018 10:00
Poco nuboso
Poco nuboso
 Viento de O
Viento: O 11 km/h
Temperatura: 5°C
Sensación térmica: 2°C
Rocío: 2°C
Humedad: 81%
Barómetro: 1021 hPa
Nubes: Poco nuboso
Visibilidad: 10 km
Detalles de las nubes: Poco nuboso 1463 m
2018/02/19 09:00 LEVD 190900Z 26006KT 9999 FEW048 05/02 Q1021
LEBL - Barcelona, Spain
Distancia de la estación: NE 816km
Actualización: 19/02/2018 10:00
Muy nuboso
Muy nuboso
 Viento de NO
Viento: NO 15 km/h
Temperatura: 9°C
Sensación térmica: 7°C
Rocío: 5°C
Humedad: 76%
Barómetro: 1018 hPa
Nubes: Muy nuboso
Visibilidad: 10 km
Detalles de las nubes: Parcialmente nuboso 457 m
Muy nuboso 610 m
2018/02/19 09:00 LEBL 190900Z 32008KT 300V360 9999 SCT015 BKN020 09/05 Q1018 NOSIG